Terminal Aerodrome Forecast
Issued by NWS

Home | Current Version | Previous Version | Text Only | Print | Product List | Glossary On
Versions: 1 2 3 4 5 6 7 8 9 10 11 12 13 14 15 16 17
000
FTUS43 KBIS 120600 AAA
TAFJMS
TAF AMD
KJMS 120607Z 1206/1306 34005KT P6SM SCT110 BKN150
     FM121000 VRB03KT P6SM BKN110
     FM121400 24006KT P6SM BKN120
     FM121900 29011KT P6SM SCT070 BKN110
     FM130100 32007KT P6SM BKN100=

USA.gov is the U.S. government's official web portal to all federal, state and local government web resources and services.